createdAt,value
2018-11-26T00:01:45.454Z,88.31
2018-11-26T00:04:13.874Z,88.13
2018-11-26T00:06:42.370Z,88.03
2018-11-26T00:09:14.969Z,87.97
2018-11-26T00:11:44.902Z,88.23
2018-11-26T00:14:13.451Z,87.85
2018-11-26T00:16:45.943Z,88.05
2018-11-26T00:19:14.409Z,88.09
2018-11-26T00:22:00.606Z,88.04
2018-11-26T00:24:35.861Z,88.00
2018-11-26T00:27:04.546Z,87.76
2018-11-26T00:29:38.113Z,88.55
2018-11-26T00:32:13.595Z,88.53
2018-11-26T00:34:42.137Z,88.54
2018-11-26T00:37:15.661Z,88.61
2018-11-26T00:42:19.213Z,88.59
2018-11-26T00:44:47.644Z,88.17
2018-11-26T00:47:16.069Z,88.72
2018-11-26T00:49:44.693Z,88.56
2018-11-26T00:52:13.220Z,88.83
2018-11-26T00:54:41.698Z,88.72
2018-11-26T00:57:10.185Z,88.92
2018-11-26T00:59:38.733Z,88.85
2018-11-26T01:02:11.520Z,88.68
2018-11-26T01:04:40.917Z,88.78
2018-11-26T01:07:09.520Z,88.66
2018-11-26T01:09:38.004Z,88.78
2018-11-26T01:12:10.489Z,88.95
2018-11-26T01:14:39.188Z,88.79
2018-11-26T01:17:07.629Z,88.98
2018-11-26T01:19:36.129Z,88.81
2018-11-26T01:22:04.564Z,88.83
2018-11-26T01:24:37.185Z,88.93
2018-11-26T01:27:05.947Z,88.52
2018-11-26T01:29:34.388Z,88.63
2018-11-26T01:32:07.924Z,88.59
2018-11-26T01:34:40.026Z,88.44
2018-11-26T01:37:08.584Z,88.58
2018-11-26T01:39:37.062Z,88.35
2018-11-26T01:42:05.464Z,88.29
2018-11-26T01:44:33.909Z,88.45
2018-11-26T01:47:30.133Z,88.36
2018-11-26T01:49:58.533Z,87.99
2018-11-26T01:52:30.984Z,88.47
2018-11-26T01:54:59.454Z,88.19
2018-11-26T02:00:36.553Z,88.03
2018-11-26T02:03:04.981Z,87.93
2018-11-26T02:05:33.537Z,87.93
2018-11-26T02:08:01.952Z,88.17
2018-11-26T02:10:30.358Z,88.13
2018-11-26T02:12:58.801Z,87.87
2018-11-26T02:15:36.529Z,88.03
2018-11-26T02:18:05.019Z,88.05
2018-11-26T02:20:33.706Z,88.04
2018-11-26T02:23:02.126Z,87.86
2018-11-26T02:25:30.682Z,88.52
2018-11-26T02:27:59.156Z,87.96
2018-11-26T02:30:27.853Z,87.87
2018-11-26T02:32:56.274Z,87.75
2018-11-26T02:35:26.498Z,87.46
2018-11-26T02:37:56.946Z,87.96
2018-11-26T02:40:33.045Z,87.94
2018-11-26T02:43:06.468Z,87.49
2018-11-26T02:45:34.892Z,87.83
2018-11-26T02:48:03.314Z,87.60
2018-11-26T02:50:33.613Z,88.10
2018-11-26T02:53:02.031Z,87.55
2018-11-26T02:55:30.444Z,87.88
2018-11-26T02:57:58.896Z,87.77
2018-11-26T03:00:27.568Z,87.43
2018-11-26T03:02:56.039Z,87.76
2018-11-26T03:05:27.107Z,87.77
2018-11-26T03:07:55.676Z,87.47
2018-11-26T03:10:25.038Z,87.30
2018-11-26T03:13:01.973Z,87.47
2018-11-26T03:15:30.678Z,87.54
2018-11-26T03:17:59.397Z,87.58
2018-11-26T03:20:32.770Z,87.61
2018-11-26T03:23:01.169Z,87.41
2018-11-26T03:25:29.877Z,87.39
2018-11-26T03:28:03.402Z,87.52
2018-11-26T03:33:08.871Z,87.38
2018-11-26T03:35:37.328Z,87.34
2018-11-26T03:38:20.889Z,87.57
2018-11-26T03:40:54.539Z,87.29
2018-11-26T03:43:22.958Z,87.56
2018-11-26T03:45:56.513Z,87.32
2018-11-26T03:48:28.749Z,87.84
2018-11-26T03:50:57.368Z,87.84
2018-11-26T03:53:26.374Z,87.67
2018-11-26T03:55:55.113Z,87.48
2018-11-26T03:58:23.515Z,87.72
2018-11-26T04:00:53.964Z,87.69
2018-11-26T04:03:22.435Z,87.95
2018-11-26T04:05:50.897Z,87.81
2018-11-26T04:08:19.320Z,87.57
2018-11-26T04:10:47.888Z,87.90
2018-11-26T04:16:32.904Z,87.62
2018-11-26T04:19:06.387Z,87.63
2018-11-26T04:21:34.913Z,87.77
2018-11-26T04:24:03.548Z,87.72
2018-11-26T04:26:32.198Z,87.67
2018-11-26T04:29:02.763Z,87.56
2018-11-26T04:31:31.299Z,87.76
2018-11-26T04:34:02.778Z,87.99
2018-11-26T04:36:33.330Z,87.89
2018-11-26T04:39:01.765Z,87.74
2018-11-26T04:41:35.266Z,87.70
2018-11-26T05:04:13.885Z,87.47
2018-11-26T05:06:42.249Z,87.35
2018-11-26T05:09:10.713Z,87.68
2018-11-26T05:11:39.109Z,87.62
2018-11-26T05:17:05.516Z,87.70
2018-11-26T05:19:54.383Z,87.62
2018-11-26T05:22:22.945Z,87.49
2018-11-26T05:24:52.362Z,87.69
2018-11-26T05:27:20.782Z,87.92
2018-11-26T05:29:49.250Z,87.71
2018-11-26T05:32:17.689Z,87.99
2018-11-26T05:34:46.062Z,87.83
2018-11-26T05:41:33.584Z,87.56
2018-11-26T05:44:01.982Z,87.28
2018-11-26T05:46:30.433Z,87.30
2018-11-26T05:49:08.342Z,87.27
2018-11-26T05:52:11.153Z,87.71
2018-11-26T05:54:39.615Z,87.58
2018-11-26T05:57:08.088Z,87.76
2018-11-26T05:59:36.706Z,87.81
2018-11-26T06:02:05.216Z,87.60
2018-11-26T06:04:44.227Z,87.68
2018-11-26T06:07:14.594Z,87.87
2018-11-26T06:09:43.141Z,88.04
2018-11-26T06:12:11.607Z,87.75
2018-11-26T06:14:40.101Z,87.97
2018-11-26T06:17:09.902Z,87.86
2018-11-26T06:19:38.366Z,87.54
2018-11-26T06:22:06.848Z,87.92
2018-11-26T06:24:35.227Z,87.47
2018-11-26T06:27:03.719Z,87.80
2018-11-26T06:29:32.153Z,87.92
2018-11-26T06:32:00.637Z,87.56
2018-11-26T06:34:29.203Z,87.71
2018-11-26T06:36:57.654Z,87.53
2018-11-26T06:39:26.087Z,87.65
2018-11-26T06:41:54.720Z,87.62
2018-11-26T06:44:23.195Z,88.05
2018-11-26T06:46:51.758Z,87.39
2018-11-26T06:49:20.572Z,87.68
2018-11-26T06:51:49.124Z,87.59
2018-11-26T06:54:17.933Z,87.43
2018-11-26T06:56:50.418Z,87.29
2018-11-26T06:59:21.950Z,87.57
2018-11-26T07:01:51.690Z,87.18
2018-11-26T07:04:26.868Z,87.33
2018-11-26T07:06:55.271Z,87.25
2018-11-26T07:09:25.730Z,87.18
2018-11-26T07:12:10.936Z,87.11
2018-11-26T07:14:39.393Z,87.11
2018-11-26T07:17:07.810Z,87.03
2018-11-26T07:19:53.761Z,87.15
2018-11-26T07:22:24.405Z,87.31
2018-11-26T07:24:59.621Z,87.11
2018-11-26T07:27:33.847Z,86.87
2018-11-26T07:30:02.270Z,86.84
2018-11-26T07:32:30.777Z,86.95
2018-11-26T07:34:59.363Z,86.95
2018-11-26T07:37:27.759Z,86.74
2018-11-26T07:39:56.174Z,86.74
2018-11-26T07:42:24.657Z,86.84
2018-11-26T07:44:53.333Z,86.99
2018-11-26T07:47:21.856Z,86.86
2018-11-26T07:49:50.502Z,86.76
2018-11-26T07:52:27.263Z,86.82
2018-11-26T07:54:55.650Z,86.57
2018-11-26T07:57:24.121Z,86.57
2018-11-26T07:59:59.288Z,86.54
2018-11-26T08:02:27.845Z,86.52
2018-11-26T08:04:56.234Z,86.24
2018-11-26T08:07:24.672Z,86.04
2018-11-26T08:09:53.091Z,86.16
2018-11-26T08:12:28.078Z,86.35
2018-11-26T08:14:56.586Z,86.61
2018-11-26T08:17:25.056Z,86.13
2018-11-26T08:19:53.675Z,86.26
2018-11-26T08:22:22.178Z,86.16
2018-11-26T08:24:50.657Z,86.26
2018-11-26T08:27:19.185Z,86.74
2018-11-26T08:29:47.661Z,86.14
2018-11-26T08:33:12.457Z,85.86
2018-11-26T08:35:40.879Z,85.88
2018-11-26T08:38:14.655Z,85.72
2018-11-26T08:40:48.318Z,86.04
2018-11-26T08:43:21.989Z,85.92
2018-11-26T08:46:02.347Z,85.99
2018-11-26T08:48:31.595Z,85.88
2018-11-26T08:51:01.099Z,85.53
2018-11-26T08:53:29.744Z,85.53
2018-11-26T08:55:58.346Z,85.76
2018-11-26T08:58:30.029Z,85.72
2018-11-26T09:01:05.436Z,85.43
2018-11-26T09:03:35.790Z,85.32
2018-11-26T09:06:09.375Z,85.55
2018-11-26T09:08:38.405Z,85.57
2018-11-26T09:11:08.819Z,85.74
2018-11-26T09:13:37.526Z,85.95
2018-11-26T09:16:06.235Z,85.72
2018-11-26T09:18:34.649Z,85.26
2018-11-26T09:21:03.105Z,85.26
2018-11-26T09:23:31.509Z,85.07
2018-11-26T09:26:00.072Z,84.83
2018-11-26T09:28:28.583Z,85.46
2018-11-26T09:30:57.045Z,85.63
2018-11-26T09:33:25.450Z,85.46
2018-11-26T09:35:54.168Z,85.86
2018-11-26T09:38:22.668Z,85.58
2018-11-26T09:40:51.302Z,85.57
2018-11-26T09:43:19.749Z,85.61
2018-11-26T09:45:49.242Z,85.53
2018-11-26T09:48:17.849Z,85.59
2018-11-26T09:50:46.334Z,85.64
2018-11-26T09:53:14.885Z,85.85
2018-11-26T09:55:43.401Z,85.82
2018-11-26T09:58:11.955Z,85.94
2018-11-26T10:00:40.514Z,85.93
2018-11-26T10:03:08.978Z,86.01
2018-11-26T10:05:37.492Z,85.84
2018-11-26T10:08:06.377Z,85.93
2018-11-26T10:10:34.851Z,85.79
2018-11-26T10:13:08.301Z,85.90
2018-11-26T10:15:36.713Z,86.06
2018-11-26T10:18:15.517Z,85.86
2018-11-26T10:20:43.924Z,85.96
2018-11-26T10:23:12.373Z,85.70
2018-11-26T10:25:40.781Z,85.25
2018-11-26T10:28:24.989Z,85.92
2018-11-26T10:30:53.416Z,86.16
2018-11-26T10:33:21.862Z,86.26
2018-11-26T10:35:50.464Z,85.88
2018-11-26T10:38:19.287Z,85.91
2018-11-26T10:40:47.843Z,86.01
2018-11-26T10:43:16.243Z,85.82
2018-11-26T10:45:44.693Z,85.86
2018-11-26T10:48:13.367Z,86.25
2018-11-26T10:50:41.784Z,86.21
2018-11-26T10:53:11.275Z,86.08
2018-11-26T10:55:39.923Z,86.22
2018-11-26T10:58:08.589Z,86.32
2018-11-26T11:00:45.174Z,85.92
2018-11-26T11:03:13.730Z,86.08
2018-11-26T11:05:42.209Z,86.14
2018-11-26T11:08:15.732Z,85.99
2018-11-26T11:10:44.245Z,86.02
2018-11-26T11:19:43.111Z,85.99
2018-11-26T11:22:16.560Z,85.10
2018-11-26T11:24:50.000Z,85.34
2018-11-26T11:27:20.473Z,85.72
2018-11-26T11:29:48.930Z,85.90
2018-11-26T11:32:17.394Z,86.11
2018-11-26T11:37:54.014Z,85.99
2018-11-26T11:40:29.396Z,85.78
2018-11-26T11:43:03.628Z,85.75
2018-11-26T11:45:34.461Z,85.34
2018-11-26T11:48:02.935Z,85.64
2018-11-26T11:50:31.520Z,85.21
2018-11-26T11:53:00.087Z,85.30
2018-11-26T11:55:28.642Z,85.32
2018-11-26T11:58:02.940Z,85.23
2018-11-26T12:00:35.059Z,85.14
2018-11-26T12:03:08.968Z,85.07
2018-11-26T12:05:37.602Z,85.03
2018-11-26T12:08:07.451Z,84.88
2018-11-26T12:10:36.237Z,84.88
2018-11-26T12:13:04.954Z,84.61
2018-11-26T12:15:33.412Z,84.55
2018-11-26T12:18:03.870Z,84.50
2018-11-26T12:20:55.773Z,84.35
2018-11-26T12:23:24.221Z,83.82
2018-11-26T12:25:56.933Z,83.88
2018-11-26T12:28:25.391Z,83.51
2018-11-26T12:31:00.242Z,83.30
2018-11-26T12:33:30.524Z,83.78
2018-11-26T12:35:59.106Z,83.89
2018-11-26T12:38:27.616Z,83.63
2018-11-26T12:40:56.400Z,83.32
2018-11-26T12:43:32.401Z,83.55
2018-11-26T12:49:05.650Z,83.38
2018-11-26T12:51:34.068Z,83.42
2018-11-26T12:54:02.525Z,83.46
2018-11-26T12:56:30.955Z,83.20
2018-11-26T12:59:01.260Z,83.14
2018-11-26T13:01:29.653Z,83.29
2018-11-26T13:04:12.254Z,82.90
2018-11-26T13:06:44.767Z,83.18
2018-11-26T13:09:13.486Z,83.05
2018-11-26T13:11:41.932Z,82.98
2018-11-26T13:14:10.435Z,83.05
2018-11-26T13:16:39.042Z,83.18
2018-11-26T13:19:07.603Z,82.76
2018-11-26T13:21:41.664Z,82.76
2018-11-26T13:24:44.143Z,82.87
2018-11-26T13:27:12.758Z,82.92
2018-11-26T13:29:41.414Z,82.85
2018-11-26T13:32:09.873Z,82.50
2018-11-26T13:34:38.564Z,82.59
2018-11-26T13:37:07.116Z,82.61
2018-11-26T13:39:39.626Z,82.29
2018-11-26T13:42:08.170Z,82.43
2018-11-26T13:44:41.709Z,82.61
2018-11-26T13:47:10.184Z,82.45
2018-11-26T13:49:38.731Z,82.66
2018-11-26T13:52:07.206Z,82.45
2018-11-26T13:54:35.909Z,82.43
2018-11-26T13:57:04.372Z,82.22
2018-11-26T13:59:34.150Z,82.14
2018-11-26T14:02:04.386Z,81.92
2018-11-26T14:04:33.671Z,82.24
2018-11-26T14:07:07.504Z,81.94
2018-11-26T14:09:35.937Z,81.89
2018-11-26T14:12:04.436Z,82.06
2018-11-26T14:14:37.038Z,82.16
2018-11-26T14:17:10.596Z,81.88
2018-11-26T14:19:50.794Z,81.92
2018-11-26T14:22:19.246Z,81.96
2018-11-26T14:24:47.795Z,81.88
2018-11-26T14:27:16.228Z,81.95
2018-11-26T14:29:47.861Z,82.02
2018-11-26T14:32:16.283Z,81.71
2018-11-26T14:34:44.922Z,81.57
2018-11-26T14:37:13.534Z,81.56
2018-11-26T14:39:42.302Z,81.62
2018-11-26T14:42:10.869Z,81.67
2018-11-26T14:44:50.460Z,81.77
2018-11-26T14:47:23.880Z,81.75
2018-11-26T14:49:55.645Z,81.70
2018-11-26T14:52:24.238Z,81.58
2018-11-26T14:54:52.694Z,81.69
2018-11-26T14:57:21.328Z,81.31
2018-11-26T14:59:50.056Z,81.56
2018-11-26T15:02:18.636Z,81.73
2018-11-26T15:04:47.123Z,81.68
2018-11-26T15:07:15.766Z,81.60
2018-11-26T15:09:44.525Z,81.63
2018-11-26T15:12:13.038Z,81.60
2018-11-26T15:14:41.508Z,81.20
2018-11-26T15:17:10.012Z,81.31
2018-11-26T15:19:38.475Z,81.54
2018-11-26T15:22:07.227Z,81.98
2018-11-26T15:24:35.725Z,81.46
2018-11-26T15:27:04.300Z,81.26
2018-11-26T15:29:32.812Z,81.32
2018-11-26T15:32:01.334Z,81.31
2018-11-26T15:34:29.849Z,81.52
2018-11-26T15:36:58.376Z,81.54
2018-11-26T15:39:26.793Z,81.65
2018-11-26T15:41:55.260Z,81.58
2018-11-26T15:47:16.198Z,81.65
2018-11-26T15:49:44.684Z,81.48
2018-11-26T15:52:13.119Z,81.77
2018-11-26T15:54:42.147Z,81.70
2018-11-26T15:59:50.089Z,81.78
2018-11-26T16:02:18.523Z,81.51
2018-11-26T16:04:49.972Z,81.55
2018-11-26T16:07:18.499Z,81.61
2018-11-26T16:09:47.114Z,81.39
2018-11-26T16:12:19.658Z,81.29
2018-11-26T16:14:48.157Z,81.50
2018-11-26T16:17:21.555Z,81.67
2018-11-26T16:19:50.221Z,81.28
2018-11-26T16:22:18.930Z,81.32
2018-11-26T16:24:48.559Z,81.45
2018-11-26T16:27:17.022Z,81.23
2018-11-26T16:29:48.817Z,81.39
2018-11-26T16:32:17.521Z,81.47
2018-11-26T16:34:45.984Z,81.23
2018-11-26T16:37:14.605Z,81.01
2018-11-26T16:39:43.097Z,80.66
2018-11-26T16:42:11.698Z,81.07
2018-11-26T16:44:45.151Z,81.37
2018-11-26T16:47:13.747Z,81.26
2018-11-26T16:49:45.255Z,81.29
2018-11-26T16:52:13.680Z,81.48
2018-11-26T16:54:46.332Z,81.21
2018-11-26T16:57:14.845Z,81.18
2018-11-26T16:59:43.274Z,81.03
2018-11-26T17:02:11.875Z,80.82
2018-11-26T17:04:45.935Z,81.27
2018-11-26T17:07:14.441Z,81.02
2018-11-26T17:09:43.558Z,81.08
2018-11-26T17:12:12.223Z,80.93
2018-11-26T17:14:40.961Z,81.09
2018-11-26T17:17:09.934Z,80.70
2018-11-26T17:19:38.982Z,81.15
2018-11-26T17:22:08.554Z,80.88
2018-11-26T17:25:00.263Z,80.84
2018-11-26T17:27:29.104Z,80.65
2018-11-26T17:29:57.568Z,80.58
2018-11-26T17:32:26.117Z,80.67
2018-11-26T17:34:54.557Z,80.94
2018-11-26T17:37:23.013Z,80.92
2018-11-26T17:39:51.548Z,80.84
2018-11-26T17:42:43.892Z,80.66
2018-11-26T17:45:16.990Z,80.17
2018-11-26T17:47:54.730Z,80.52
2018-11-26T17:50:27.615Z,80.36
2018-11-26T17:52:56.147Z,80.31
2018-11-26T17:55:24.819Z,80.69
2018-11-26T17:57:53.563Z,80.43
2018-11-26T18:00:27.948Z,80.49
2018-11-26T18:02:56.638Z,80.68
2018-11-26T18:05:27.793Z,80.37
2018-11-26T18:08:01.057Z,80.70
2018-11-26T18:10:29.826Z,80.41
2018-11-26T18:12:58.298Z,80.87
2018-11-26T18:15:30.845Z,80.08
2018-11-26T18:17:59.778Z,79.49
2018-11-26T18:20:28.266Z,80.01
2018-11-26T18:23:00.777Z,80.07
2018-11-26T18:25:29.315Z,80.22
2018-11-26T18:28:12.120Z,80.28
2018-11-26T18:30:46.086Z,80.31
2018-11-26T18:33:18.627Z,80.24
2018-11-26T18:35:48.365Z,80.30
2018-11-26T18:38:17.275Z,79.98
2018-11-26T18:40:47.243Z,80.30
2018-11-26T18:43:31.374Z,80.00
2018-11-26T18:46:04.035Z,80.17
2018-11-26T18:48:32.577Z,80.02
2018-11-26T18:51:01.347Z,80.26
2018-11-26T18:53:29.875Z,79.95
2018-11-26T18:55:58.605Z,79.98
2018-11-26T18:58:27.227Z,79.88
2018-11-26T19:00:58.213Z,79.94
2018-11-26T19:03:27.662Z,79.97
2018-11-26T19:05:58.077Z,80.18
2018-11-26T19:08:26.635Z,80.24
2018-11-26T19:10:59.215Z,80.51
2018-11-26T19:13:34.575Z,79.81
2018-11-26T19:16:17.434Z,79.99
2018-11-26T19:19:00.979Z,80.19
2018-11-26T19:21:29.659Z,80.28
2018-11-26T19:23:58.286Z,80.34
2018-11-26T19:26:58.792Z,80.15
2018-11-26T19:29:27.555Z,79.94
2018-11-26T19:31:57.454Z,79.34
2018-11-26T19:34:28.745Z,79.68
2018-11-26T19:36:57.395Z,79.71
2018-11-26T19:39:26.089Z,79.90
2018-11-26T19:41:54.634Z,79.47
2018-11-26T19:44:23.752Z,79.94
2018-11-26T19:46:52.671Z,79.86
2018-11-26T19:49:21.166Z,79.99
2018-11-26T19:51:49.633Z,79.99
2018-11-26T19:54:18.300Z,79.69
2018-11-26T19:56:46.913Z,80.09
2018-11-26T19:59:15.528Z,79.78
2018-11-26T20:01:44.144Z,79.96
2018-11-26T20:04:22.650Z,79.68
2018-11-26T20:06:51.126Z,79.72
2018-11-26T20:09:19.813Z,79.82
2018-11-26T20:11:48.519Z,79.79
2018-11-26T20:14:26.073Z,79.95
2018-11-26T20:16:52.978Z,79.98
2018-11-26T20:19:21.594Z,79.92
2018-11-26T20:21:50.226Z,80.23
2018-11-26T20:24:20.705Z,79.93
2018-11-26T20:26:49.338Z,79.89
2018-11-26T20:29:18.014Z,80.05
2018-11-26T20:31:47.221Z,80.12
2018-11-26T20:34:15.938Z,80.31
2018-11-26T20:36:44.443Z,80.40
2018-11-26T20:39:13.277Z,80.37
2018-11-26T20:41:42.033Z,80.24
2018-11-26T20:44:10.717Z,80.24
2018-11-26T20:46:49.026Z,80.38
2018-11-26T20:49:12.182Z,80.28
2018-11-26T20:51:40.690Z,80.02
2018-11-26T20:54:09.284Z,80.22
2018-11-26T20:56:41.803Z,80.27
2018-11-26T20:59:10.521Z,80.17
2018-11-26T21:01:39.192Z,80.10
2018-11-26T21:04:07.766Z,79.97
2018-11-26T21:06:39.318Z,79.96
2018-11-26T21:09:08.986Z,79.93
2018-11-26T21:14:21.402Z,79.90
2018-11-26T21:16:45.715Z,79.95
2018-11-26T21:19:14.183Z,80.09
2018-11-26T21:21:42.702Z,79.92
2018-11-26T21:24:11.180Z,79.81
2018-11-26T21:26:40.750Z,80.12
2018-11-26T21:29:09.518Z,79.84
2018-11-26T21:31:38.433Z,80.08
2018-11-26T21:34:07.182Z,79.73
2018-11-26T21:36:40.684Z,80.30
2018-11-26T21:39:10.779Z,80.03
2018-11-26T21:41:39.264Z,80.11
2018-11-26T21:44:07.809Z,79.76
2018-11-26T21:46:38.156Z,80.03
2018-11-26T21:49:06.743Z,80.13
2018-11-26T21:51:35.381Z,79.96
2018-11-26T21:54:04.139Z,79.59
2018-11-26T21:56:32.724Z,79.81
2018-11-26T21:59:01.318Z,79.60
2018-11-26T22:01:29.879Z,80.12
2018-11-26T22:03:58.315Z,79.55
2018-11-26T22:06:27.438Z,79.53
2018-11-26T22:12:08.747Z,79.83
2018-11-26T22:14:37.263Z,79.92
2018-11-26T22:17:06.716Z,79.84
2018-11-26T22:19:38.188Z,79.61
2018-11-26T22:22:06.866Z,80.05
2018-11-26T22:24:35.468Z,79.88
2018-11-26T22:27:04.000Z,79.95
2018-11-26T22:29:32.413Z,79.83
2018-11-26T22:32:01.098Z,80.27
2018-11-26T22:34:29.850Z,79.57
2018-11-26T22:37:03.098Z,79.60
2018-11-26T22:39:32.024Z,79.94
2018-11-26T22:44:37.447Z,79.81
2018-11-26T22:47:06.625Z,79.77
2018-11-26T22:49:35.070Z,79.50
2018-11-26T22:52:03.603Z,79.68
2018-11-26T22:54:32.113Z,80.02
2018-11-26T22:57:00.592Z,79.81
2018-11-26T22:59:29.091Z,79.54
2018-11-26T23:01:57.521Z,79.56
2018-11-26T23:04:26.226Z,79.72
2018-11-26T23:06:54.872Z,79.52
2018-11-26T23:09:23.715Z,79.34
2018-11-26T23:11:52.267Z,79.37
2018-11-26T23:14:20.873Z,79.38
2018-11-26T23:16:53.374Z,79.50
2018-11-26T23:19:21.823Z,79.42
2018-11-26T23:21:50.492Z,78.96
2018-11-26T23:24:18.782Z,79.25
2018-11-26T23:26:47.341Z,79.00
2018-11-26T23:29:16.018Z,79.31
2018-11-26T23:31:50.556Z,79.27
2018-11-26T23:34:19.122Z,79.05
2018-11-26T23:36:47.522Z,78.76
2018-11-26T23:39:16.256Z,79.02
2018-11-26T23:41:44.696Z,78.92
2018-11-26T23:44:13.169Z,78.90
2018-11-26T23:46:45.831Z,78.96
2018-11-26T23:49:14.262Z,78.69
2018-11-26T23:51:49.481Z,79.25
2018-11-26T23:54:17.917Z,78.88
2018-11-26T23:56:46.605Z,79.00
2018-11-26T23:59:15.164Z,79.09
